Time;durP1;ratioP1;P1;durP2;ratioP2;P2;SDS_P1;SDS_P2;PMS_P1;PMS_P2;Temp;Humidity;BMP_temperature;BMP_pressure;BME280_temperature;BME280_humidity;BME280_pressure;Samples;Min_cycle;Max_cycle;Signal;HPM_P1;HPM_P2
2021/12/29 00:00:17;;;;;;;124.45;70.47;;;;;;;-0.75;85.36;95198.49;1732773;80;21106;-85
2021/12/29 00:02:44;;;;;;;;;;;;;;;-0.70;85.28;95204.44;1755700;80;21136;-85
2021/12/29 00:05:10;;;;;;;135.10;71.25;;;;;;;-0.74;85.12;95207.75;1755251;80;20121;-85
2021/12/29 00:07:36;;;;;;;91.92;53.38;;;;;;;-0.82;84.75;95201.26;1754106;80;21034;-85
2021/12/29 00:10:06;;;;;;;147.37;83.30;;;;;;;-0.87;85.36;95211.56;1765458;80;20998;-85
2021/12/29 00:12:39;;;;;;;152.57;86.12;;;;;;;-0.87;85.22;95210.28;1755770;80;21079;-85
2021/12/29 00:15:00;;;;;;;150.07;85.70;;;;;;;-0.86;85.17;95204.23;1754149;80;21425;-85
2021/12/29 00:17:26;;;;;;;158.55;91.78;;;;;;;-0.85;85.15;95200.27;1753153;80;21086;-85
2021/12/29 00:19:51;;;;;;;149.75;86.90;;;;;;;-0.84;85.17;95202.34;1745834;80;21041;-85
2021/12/29 00:22:17;;;;;;;142.62;81.75;;;;;;;-0.85;85.10;95196.45;1761958;80;21307;-85
2021/12/29 00:24:45;;;;;;;141.53;79.90;;;;;;;-0.83;85.36;95198.38;1755447;80;21497;-85
2021/12/29 00:27:11;;;;;;;103.32;60.33;;;;;;;-0.80;85.54;95190.94;1764082;80;21038;-85
2021/12/29 00:29:38;;;;;;;96.12;53.80;;;;;;;-0.77;86.12;95194.01;1763037;80;21472;-84
2021/12/29 00:32:04;;;;;;;161.05;90.67;;;;;;;-0.72;86.55;95189.28;1767637;79;21057;-85
2021/12/29 00:34:29;;;;;;;194.13;113.35;;;;;;;-0.61;86.57;95189.57;1756183;80;21085;-85
2021/12/29 00:36:55;;;;;;;198.90;116.20;;;;;;;-0.68;84.71;95182.14;1755258;80;21045;-85
2021/12/29 00:39:21;;;;;;;203.65;113.03;;;;;;;-0.76;84.71;95201.19;1757372;80;20971;-85
2021/12/29 00:41:46;;;;;;;203.67;121.42;;;;;;;-0.77;84.90;95201.66;1747115;80;21008;-86
2021/12/29 00:44:13;;;;;;;195.15;111.90;;;;;;;-0.78;84.92;95189.85;1751389;81;21031;-85
2021/12/29 00:46:39;;;;;;;193.32;110.08;;;;;;;-0.78;85.07;95193.68;1753672;80;21026;-86
2021/12/29 00:49:05;;;;;;;192.13;110.30;;;;;;;-0.78;85.16;95192.41;1726956;81;21054;-85
2021/12/29 00:51:30;;;;;;;190.03;110.08;;;;;;;-0.77;85.18;95186.36;1760314;80;21016;-85
2021/12/29 00:53:56;;;;;;;180.20;104.12;;;;;;;-0.73;85.45;95178.75;1752492;80;21525;-86
2021/12/29 00:56:22;;;;;;;166.70;95.47;;;;;;;-0.68;85.64;95179.11;1752993;80;21023;-85
2021/12/29 00:58:48;;;;;;;159.55;89.05;;;;;;;-0.61;85.83;95177.62;1744931;80;21055;-85
2021/12/29 01:01:14;;;;;;;153.75;90.17;;;;;;;-0.54;86.16;95182.14;1761560;80;21020;-85
2021/12/29 01:03:43;;;;;;;158.80;90.07;;;;;;;-0.51;86.14;95180.57;1773315;80;21066;-85
2021/12/29 01:06:08;;;;;;;150.25;87.17;;;;;;;-0.43;86.26;95178.13;1753768;80;21475;-86
2021/12/29 01:08:35;;;;;;;150.70;88.30;;;;;;;-0.35;86.12;95179.47;1759832;80;21108;-85
2021/12/29 01:11:01;;;;;;;146.70;83.60;;;;;;;-0.32;86.08;95182.56;1760992;79;21150;-86
2021/12/29 01:13:31;;;;;;;142.65;80.72;;;;;;;-0.33;85.95;95175.85;1759522;80;21505;-85
2021/12/29 01:16:41;;;;;;;157.18;83.42;;;;;;;-0.31;86.05;95168.84;1769548;79;21039;-85
2021/12/29 01:18:29;;;;;;;;;;;;;;;-0.28;86.13;95166.95;1736974;80;21030;-85
2021/12/29 01:20:55;;;;;;;144.02;81.80;;;;;;;-0.28;86.22;95169.50;1750693;80;20131;-85
2021/12/29 01:23:22;;;;;;;125.35;70.12;;;;;;;-0.29;85.97;95171.73;1754455;80;21048;-85
2021/12/29 01:25:48;;;;;;;133.70;71.62;;;;;;;-0.29;86.27;95169.98;1745437;80;21096;-86
2021/12/29 01:28:13;;;;;;;129.53;71.42;;;;;;;-0.24;86.35;95169.53;1756341;79;21518;-85
2021/12/29 01:30:39;;;;;;;122.72;68.00;;;;;;;-0.21;86.32;95171.31;1757428;80;22094;-85
2021/12/29 01:33:07;;;;;;;110.35;57.85;;;;;;;-0.19;86.39;95177.08;1752381;80;20995;-85
2021/12/29 01:35:33;;;;;;;126.62;74.20;;;;;;;-0.14;86.57;95180.02;1758103;80;21046;-86
2021/12/29 01:38:00;;;;;;;127.30;69.30;;;;;;;-0.08;86.44;95175.59;1751100;80;21438;-86
2021/12/29 01:40:26;;;;;;;124.58;75.35;;;;;;;-0.06;86.41;95178.80;1761452;80;21047;-85
2021/12/29 01:42:53;;;;;;;130.72;77.40;;;;;;;-0.06;86.16;95176.72;1767020;80;21067;-86
2021/12/29 01:45:19;;;;;;;129.12;74.37;;;;;;;-0.07;85.92;95184.86;1772894;80;21374;-86
2021/12/29 01:47:45;;;;;;;122.40;72.20;;;;;;;-0.04;85.96;95184.56;1756568;80;21054;-86
2021/12/29 01:50:11;;;;;;;138.82;77.65;;;;;;;-0.06;85.54;95186.94;1761917;80;20999;-85
2021/12/29 01:52:39;;;;;;;149.27;86.00;;;;;;;-0.10;85.52;95192.81;1763053;80;21065;-86
2021/12/29 01:55:12;;;;;;;147.80;86.17;;;;;;;-0.11;85.35;95187.38;1759896;80;20980;-85
2021/12/29 01:57:38;;;;;;;154.25;88.37;;;;;;;-0.16;85.34;95190.85;1768363;80;21369;-86
2021/12/29 02:00:07;;;;;;;140.47;84.45;;;;;;;-0.17;85.37;95189.22;1764027;80;21051;-86
2021/12/29 02:02:33;;;;;;;137.90;79.97;;;;;;;-0.17;85.49;95191.77;1715117;80;21027;-86
2021/12/29 02:04:59;;;;;;;141.15;80.42;;;;;;;-0.14;85.60;95186.41;1765903;79;21418;-85
2021/12/29 02:07:25;;;;;;;127.35;76.50;;;;;;;-0.12;85.72;95184.50;1761495;80;21004;-85
2021/12/29 02:09:51;;;;;;;130.25;73.90;;;;;;;-0.08;85.70;95178.63;1753466;80;21058;-86
2021/12/29 02:12:17;;;;;;;107.52;60.63;;;;;;;-0.10;85.72;95185.63;1737690;80;21011;-85
2021/12/29 02:14:42;;;;;;;107.95;61.83;;;;;;;-0.12;85.15;95183.23;1754395;80;21079;-86
2021/12/29 02:17:08;;;;;;;108.67;66.00;;;;;;;-0.11;85.24;95182.75;1758636;80;22206;-85
2021/12/29 02:19:42;;;;;;;108.22;61.37;;;;;;;-0.11;85.29;95185.30;1767742;80;21410;-85
2021/12/29 02:22:09;;;;;;;108.72;64.72;;;;;;;-0.10;85.21;95188.19;1760191;80;21020;-85
2021/12/29 02:24:43;;;;;;;101.45;62.05;;;;;;;-0.09;85.38;95181.66;1761988;80;20952;-86
2021/12/29 02:27:05;;;;;;;108.65;63.08;;;;;;;-0.06;85.46;95190.77;1750086;80;21448;-85
2021/12/29 02:29:31;;;;;;;100.22;62.03;;;;;;;-0.05;85.44;95193.65;1764571;80;21031;-85
2021/12/29 02:31:57;;;;;;;98.62;61.83;;;;;;;-0.08;85.19;95203.69;1758132;80;21022;-86
2021/12/29 02:34:22;;;;;;;106.87;63.02;;;;;;;-0.01;85.40;95203.89;1762990;79;21062;-86
2021/12/29 02:36:48;;;;;;;104.72;60.75;;;;;;;0.06;85.38;95207.97;1762378;80;22088;-86
2021/12/29 02:39:19;;;;;;;102.45;60.63;;;;;;;0.06;85.26;95197.27;1761736;80;21048;-86
2021/12/29 02:44:18;;;;;;;93.82;55.40;;;;;;;0.06;85.38;95190.08;1757235;79;21061;-85
2021/12/29 02:46:41;;;;;;;100.55;57.00;;;;;;;0.01;85.26;95202.50;1763230;80;21023;-85
2021/12/29 02:49:07;;;;;;;92.95;53.75;;;;;;;0.01;85.25;95198.19;1764867;80;21062;-86
2021/12/29 02:51:33;;;;;;;90.90;55.23;;;;;;;0.02;85.13;95190.05;1769823;80;21047;-86
2021/12/29 02:54:01;;;;;;;93.60;55.73;;;;;;;0.02;85.28;95186.23;1764820;80;21064;-86
2021/12/29 02:56:27;;;;;;;97.78;56.30;;;;;;;0.01;85.30;95192.28;1756529;80;21019;-86
2021/12/29 02:58:53;;;;;;;97.92;57.27;;;;;;;-0.08;85.16;95185.01;1760891;80;21050;-85
2021/12/29 03:01:19;;;;;;;91.75;55.85;;;;;;;-0.10;85.22;95183.08;1768869;80;21026;-86
2021/12/29 03:03:45;;;;;;;98.05;58.08;;;;;;;-0.14;85.24;95185.13;1755054;80;21410;-85
2021/12/29 03:06:11;;;;;;;93.78;55.73;;;;;;;-0.16;85.30;95189.58;1764152;80;21145;-85
2021/12/29 03:08:37;;;;;;;87.80;53.17;;;;;;;-0.11;85.56;95186.58;1762209;80;21034;-85
2021/12/29 03:11:04;;;;;;;87.33;51.15;;;;;;;-0.07;85.42;95186.61;1756309;80;21058;-85
2021/12/29 03:13:32;;;;;;;68.80;41.55;;;;;;;-0.10;85.35;95190.73;1728989;80;21050;-84
2021/12/29 03:15:58;;;;;;;86.32;47.93;;;;;;;-0.16;85.09;95197.71;1756798;80;21013;-85
2021/12/29 03:18:25;;;;;;;82.70;48.58;;;;;;;-0.23;84.70;95206.41;1754326;80;21121;-85
2021/12/29 03:20:51;;;;;;;74.75;48.52;;;;;;;-0.21;84.96;95213.44;1760949;79;21534;-85
2021/12/29 03:23:17;;;;;;;78.65;49.40;;;;;;;-0.16;85.26;95212.55;1759099;80;21079;-84
2021/12/29 03:25:43;;;;;;;86.12;52.53;;;;;;;-0.13;85.45;95214.81;1757502;80;21027;-84
2021/12/29 03:28:09;;;;;;;82.40;49.23;;;;;;;-0.14;85.54;95206.02;1764676;80;21059;-84
2021/12/29 03:30:38;;;;;;;87.70;52.95;;;;;;;-0.10;85.56;95206.06;1761013;80;21461;-84
2021/12/29 03:33:05;;;;;;;80.15;47.15;;;;;;;-0.06;85.73;95203.06;1761172;80;21013;-85
2021/12/29 03:35:43;;;;;;;58.78;36.17;;;;;;;-0.01;85.90;95201.34;1763411;80;21572;-84
2021/12/29 03:38:12;;;;;;;77.20;47.30;;;;;;;-0.01;86.26;95200.86;1764242;80;21128;-85
2021/12/29 03:40:38;;;;;;;24.60;15.63;;;;;;;0.02;86.27;95193.41;1764193;80;21425;-84
2021/12/29 03:43:05;;;;;;;28.23;17.40;;;;;;;0.05;87.62;95194.39;1764874;80;21044;-85
2021/12/29 03:45:30;;;;;;;6.78;4.53;;;;;;;0.17;87.91;95189.40;1754754;80;21108;-84
2021/12/29 03:47:56;;;;;;;2.58;2.35;;;;;;;0.34;88.79;95185.22;1759104;80;21085;-85
2021/12/29 03:50:22;;;;;;;2.40;2.00;;;;;;;0.52;89.00;95183.91;1771749;80;21539;-86
2021/12/29 03:52:48;;;;;;;1.82;1.60;;;;;;;0.68;88.69;95179.39;1771009;80;21071;-86
2021/12/29 03:55:14;;;;;;;2.02;1.60;;;;;;;0.79;88.38;95167.13;1762625;79;21154;-87
2021/12/29 03:57:39;;;;;;;1.70;1.60;;;;;;;0.92;88.20;95173.12;1764367;80;21168;-86
2021/12/29 04:00:09;;;;;;;1.82;1.60;;;;;;;1.04;88.04;95164.72;1764475;80;21142;-86
2021/12/29 04:02:34;;;;;;;1.65;1.55;;;;;;;1.13;87.80;95174.81;1769422;80;21322;-86
2021/12/29 04:05:01;;;;;;;1.32;1.22;;;;;;;1.20;87.54;95174.55;1737556;81;21006;-84
2021/12/29 04:07:27;;;;;;;1.40;1.30;;;;;;;1.28;87.30;95181.92;1757567;79;21110;-84
2021/12/29 04:09:53;;;;;;;1.92;1.70;;;;;;;1.35;87.04;95183.73;1768288;80;21067;-85
2021/12/29 04:12:20;;;;;;;1.40;1.30;;;;;;;1.43;86.85;95186.78;1768269;80;21116;-85
2021/12/29 04:14:46;;;;;;;1.42;1.30;;;;;;;1.50;86.50;95191.14;1752181;80;21055;-85
2021/12/29 04:17:13;;;;;;;1.65;1.50;;;;;;;1.57;86.46;95192.59;1741987;80;21054;-85
2021/12/29 04:22:23;;;;;;;1.42;1.32;;;;;;;1.61;86.19;95191.80;1755942;80;20996;-83
2021/12/29 04:24:49;;;;;;;1.30;1.20;;;;;;;1.64;86.15;95197.44;1767022;80;20999;-83
2021/12/29 04:27:15;;;;;;;1.25;1.15;;;;;;;1.66;86.16;95196.80;1767362;80;21015;-84
2021/12/29 04:29:41;;;;;;;1.30;1.20;;;;;;;1.70;86.01;95204.48;1775338;80;21038;-83
2021/12/29 04:32:07;;;;;;;1.20;1.10;;;;;;;1.72;85.88;95194.88;1778094;80;21444;-84
2021/12/29 04:34:33;;;;;;;19.90;12.45;;;;;;;1.75;86.06;95204.00;1761770;80;21004;-84
2021/12/29 04:36:59;;;;;;;34.20;21.30;;;;;;;1.73;85.72;95210.56;1739647;80;21073;-83
2021/12/29 04:39:25;;;;;;;28.62;17.60;;;;;;;1.66;85.08;95204.48;1769757;80;22378;-83
2021/12/29 04:44:16;;;;;;;31.90;20.00;;;;;;;1.57;85.02;95202.83;1758325;80;21008;-84
2021/12/29 04:46:46;;;;;;;38.00;23.50;;;;;;;1.54;84.93;95212.11;1756347;80;20991;-83
2021/12/29 04:49:12;;;;;;;30.23;20.62;;;;;;;1.52;85.21;95211.94;1755554;80;21030;-83
2021/12/29 04:51:44;;;;;;;30.02;18.07;;;;;;;1.49;85.25;95209.22;1757678;80;21030;-83
2021/12/29 04:54:06;;;;;;;31.12;20.23;;;;;;;1.42;85.47;95205.17;1765220;80;21009;-83
2021/12/29 04:56:33;;;;;;;29.30;18.48;;;;;;;1.41;85.74;95202.77;1765236;80;21458;-83
2021/12/29 04:58:58;;;;;;;42.30;26.17;;;;;;;1.38;85.93;95212.84;1763801;80;21031;-84
2021/12/29 05:01:24;;;;;;;49.27;29.35;;;;;;;1.31;85.46;95216.19;1767839;80;21383;-83
2021/12/29 05:03:50;;;;;;;52.62;31.17;;;;;;;1.30;85.68;95215.38;1762605;80;21057;-84
2021/12/29 05:11:26;;;;;;;49.88;30.05;;;;;;;1.22;85.96;95217.89;1756152;80;21002;-83
2021/12/29 05:13:52;;;;;;;50.70;29.67;;;;;;;1.18;86.05;95221.23;1768694;80;21062;-83
2021/12/29 05:16:18;;;;;;;50.15;30.27;;;;;;;1.15;86.20;95220.75;1741913;80;21011;-84
2021/12/29 05:18:45;;;;;;;57.33;33.67;;;;;;;1.10;86.28;95222.45;1770388;80;21038;-83
2021/12/29 05:21:11;;;;;;;59.48;32.50;;;;;;;1.08;86.23;95225.65;1770992;80;21419;-83
2021/12/29 05:23:37;;;;;;;58.35;32.67;;;;;;;1.08;86.38;95224.84;1751304;80;20984;-84
2021/12/29 05:26:03;;;;;;;59.80;31.68;;;;;;;1.06;86.52;95228.03;1771530;80;21080;-84
2021/12/29 05:28:29;;;;;;;56.13;32.67;;;;;;;1.05;86.64;95236.66;1769772;80;21084;-84
2021/12/29 05:30:55;;;;;;;58.85;32.48;;;;;;;1.01;86.82;95234.89;1765749;80;21085;-83
2021/12/29 05:33:21;;;;;;;55.95;31.48;;;;;;;1.02;86.82;95235.22;1760246;79;21142;-83
2021/12/29 05:35:47;;;;;;;54.58;30.37;;;;;;;1.03;86.85;95230.42;1756252;80;21402;-83
2021/12/29 05:38:12;;;;;;;47.65;27.73;;;;;;;1.05;86.80;95231.55;1768991;80;21329;-83
2021/12/29 05:40:38;;;;;;;52.50;29.48;;;;;;;1.07;87.00;95240.67;1766923;80;21026;-83
2021/12/29 05:43:04;;;;;;;48.08;30.37;;;;;;;1.06;87.04;95233.95;1761807;80;21025;-83
2021/12/29 05:45:30;;;;;;;51.28;30.97;;;;;;;1.05;87.14;95240.50;1763734;80;21023;-83
2021/12/29 05:47:56;;;;;;;53.98;33.10;;;;;;;1.05;87.35;95250.26;1761329;80;20995;-83
2021/12/29 05:50:26;;;;;;;52.98;31.68;;;;;;;1.06;87.43;95256.98;1766306;79;21428;-83
2021/12/29 05:52:53;;;;;;;55.03;33.53;;;;;;;1.08;86.98;95264.50;1758102;80;21393;-83
2021/12/29 05:55:18;;;;;;;61.45;36.08;;;;;;;1.10;87.04;95263.87;1763511;80;21017;-83
2021/12/29 05:57:44;;;;;;;58.40;36.10;;;;;;;1.12;87.08;95265.80;1764245;80;20940;-83
2021/12/29 06:00:14;;;;;;;58.38;37.40;;;;;;;1.14;87.16;95270.31;1759925;80;21789;-83
2021/12/29 06:02:39;;;;;;;114.57;59.73;;;;;;;1.16;87.25;95276.08;1769474;80;21147;-83
2021/12/29 06:05:09;;;;;;;140.55;62.95;;;;;;;1.20;87.25;95273.05;1769981;80;21022;-82
2021/12/29 06:07:35;;;;;;;128.05;61.63;;;;;;;1.20;87.24;95282.02;1760135;80;21417;-83
2021/12/29 06:10:01;;;;;;;90.92;45.92;;;;;;;1.22;87.28;95281.06;1757064;80;21030;-83
2021/12/29 06:12:27;;;;;;;62.85;36.85;;;;;;;1.28;87.32;95283.80;1772427;80;20987;-83
2021/12/29 06:14:54;;;;;;;83.45;45.48;;;;;;;1.32;86.82;95288.97;1765490;80;21071;-84
2021/12/29 06:17:20;;;;;;;96.97;48.55;;;;;;;1.29;86.74;95289.24;1765835;80;22024;-83
2021/12/29 06:19:46;;;;;;;85.07;42.83;;;;;;;1.27;86.95;95295.47;1752093;80;21073;-83
2021/12/29 06:22:12;;;;;;;83.70;43.50;;;;;;;1.23;86.89;95292.89;1775519;80;21005;-83
2021/12/29 06:24:42;;;;;;;75.80;43.33;;;;;;;1.20;86.99;95298.64;1762546;80;21067;-83
2021/12/29 06:27:07;;;;;;;75.20;40.45;;;;;;;1.20;86.99;95298.64;1756624;80;21130;-83
2021/12/29 06:29:33;;;;;;;69.17;38.53;;;;;;;1.21;86.94;95300.73;1757589;80;21546;-82
2021/12/29 06:32:00;;;;;;;57.23;32.55;;;;;;;1.25;86.90;95307.14;1768479;80;21067;-83
2021/12/29 06:34:27;;;;;;;49.67;30.43;;;;;;;1.22;86.80;95304.09;1764709;80;21060;-83
2021/12/29 06:36:54;;;;;;;62.05;36.20;;;;;;;1.18;86.79;95308.23;1764329;80;21216;-83
2021/12/29 06:39:20;;;;;;;54.80;33.38;;;;;;;1.16;86.99;95311.90;1773827;80;21080;-83
2021/12/29 06:41:46;;;;;;;68.83;36.48;;;;;;;1.13;87.04;95316.01;1757939;80;21440;-83
2021/12/29 06:44:12;;;;;;;68.00;36.05;;;;;;;1.10;87.11;95312.48;1763000;80;21090;-83
2021/12/29 06:46:37;;;;;;;64.65;36.28;;;;;;;1.09;87.11;95311.67;1745073;80;21091;-82
2021/12/29 06:49:03;;;;;;;57.70;33.23;;;;;;;1.12;87.12;95313.93;1753959;80;21054;-83
2021/12/29 06:51:29;;;;;;;59.45;34.27;;;;;;;1.13;87.09;95316.01;1777051;80;21454;-83
2021/12/29 06:53:55;;;;;;;59.25;34.83;;;;;;;1.11;87.24;95309.77;1768056;80;21116;-83
2021/12/29 06:56:21;;;;;;;54.08;31.60;;;;;;;1.11;87.36;95318.72;1769751;80;21118;-83
2021/12/29 06:58:46;;;;;;;64.00;35.28;;;;;;;1.10;87.46;95317.11;1732286;80;21064;-83
2021/12/29 07:01:13;;;;;;;160.63;67.12;;;;;;;1.08;87.33;95320.78;1752615;80;21086;-83
2021/12/29 07:03:39;;;;;;;134.15;55.10;;;;;;;1.08;87.35;95322.06;1765884;80;21409;-83
2021/12/29 07:06:05;;;;;;;80.50;42.62;;;;;;;1.10;87.46;95323.98;1754334;80;21027;-83
2021/12/29 07:08:30;;;;;;;95.05;46.13;;;;;;;1.10;87.32;95327.34;1761325;80;21332;-83
2021/12/29 07:10:56;;;;;;;98.67;50.63;;;;;;;1.13;87.36;95333.44;1761890;80;20996;-83
2021/12/29 07:13:22;;;;;;;93.35;46.75;;;;;;;1.14;87.43;95327.88;1769573;80;21414;-83
2021/12/29 07:15:47;;;;;;;90.83;43.40;;;;;;;1.15;87.46;95337.96;1754627;80;20995;-83
2021/12/29 07:18:14;;;;;;;85.25;44.33;;;;;;;1.16;87.59;95340.84;1757549;80;21003;-83
2021/12/29 07:20:40;;;;;;;88.40;43.75;;;;;;;1.18;87.49;95345.33;1763685;80;21413;-83
2021/12/29 07:23:05;;;;;;;73.07;39.35;;;;;;;1.25;87.54;95354.48;1767141;80;21000;-82
2021/12/29 07:25:32;;;;;;;85.53;44.45;;;;;;;1.31;87.47;95355.66;1763255;80;21071;-83
2021/12/29 07:27:58;;;;;;;92.22;48.70;;;;;;;1.33;87.12;95355.03;1751222;80;21023;-83
2021/12/29 07:30:24;;;;;;;82.72;43.78;;;;;;;1.35;87.19;95359.52;1758892;80;21030;-83
2021/12/29 07:32:50;;;;;;;89.75;46.60;;;;;;;1.34;87.25;95360.00;1768573;80;21396;-82
2021/12/29 07:35:16;;;;;;;79.90;42.20;;;;;;;1.36;87.28;95364.96;1751880;80;21006;-83
2021/12/29 07:37:41;;;;;;;76.72;40.63;;;;;;;1.38;87.26;95369.45;1770820;80;21015;-83
2021/12/29 07:40:09;;;;;;;106.27;51.20;;;;;;;1.42;87.16;95374.11;1764302;80;20999;-83
2021/12/29 07:42:39;;;;;;;196.20;86.87;;;;;;;1.47;87.17;95375.77;1767974;80;21057;-83
2021/12/29 07:45:08;;;;;;;237.68;97.27;;;;;;;1.58;87.37;95372.61;1757099;80;20962;-82
2021/12/29 07:47:36;;;;;;;218.95;95.35;;;;;;;1.62;87.04;95373.91;1768049;80;21035;-83
2021/12/29 07:50:04;;;;;;;198.55;90.50;;;;;;;1.65;86.92;95382.12;1758704;80;21059;-83
2021/12/29 07:52:30;;;;;;;189.20;80.67;;;;;;;1.67;86.87;95390.45;1771952;80;21056;-83
2021/12/29 07:54:56;;;;;;;114.22;51.05;;;;;;;1.69;86.91;95394.94;1761236;80;21019;-82
2021/12/29 07:57:23;;;;;;;103.92;51.23;;;;;;;1.73;86.83;95389.84;1762439;80;21098;-83
2021/12/29 07:59:48;;;;;;;89.15;43.70;;;;;;;1.81;86.78;95390.37;1763647;80;21071;-83
2021/12/29 08:02:18;;;;;;;87.78;44.93;;;;;;;1.86;86.52;95393.75;1745599;81;21006;-83
2021/12/29 08:04:45;;;;;;;88.90;45.75;;;;;;;1.91;86.45;95395.38;1760945;80;21046;-83
2021/12/29 08:07:11;;;;;;;98.10;53.10;;;;;;;1.94;86.45;95386.09;1764925;80;21046;-83
2021/12/29 08:09:36;;;;;;;124.55;56.92;;;;;;;1.98;86.45;95390.78;1751472;80;21386;-83
2021/12/29 08:12:03;;;;;;;213.72;87.75;;;;;;;1.97;86.28;95385.34;1741588;80;21019;-82
2021/12/29 08:14:28;;;;;;;246.15;107.63;;;;;;;1.96;86.11;95388.86;1765820;80;21415;-82
2021/12/29 08:16:55;;;;;;;211.65;90.40;;;;;;;1.92;85.84;95396.97;1774046;80;20971;-82
2021/12/29 08:19:21;;;;;;;178.50;79.35;;;;;;;1.90;85.84;95393.28;1761651;80;21035;-82
2021/12/29 08:21:47;;;;;;;158.18;76.87;;;;;;;1.95;85.97;95401.34;1772088;80;21003;-82
2021/12/29 08:24:13;;;;;;;169.02;85.17;;;;;;;1.99;85.93;95403.11;1760218;80;21103;-82
2021/12/29 08:26:38;;;;;;;110.40;63.75;;;;;;;2.06;85.87;95402.81;1750476;80;21070;-82
2021/12/29 08:29:04;;;;;;;102.35;57.73;;;;;;;2.03;85.55;95401.36;1743901;80;20937;-83
2021/12/29 08:31:30;;;;;;;81.65;47.93;;;;;;;2.04;85.64;95404.73;1749314;80;21700;-82
2021/12/29 08:33:56;;;;;;;84.15;50.70;;;;;;;2.01;85.50;95399.44;1759147;80;21504;-82
2021/12/29 08:36:23;;;;;;;126.10;68.02;;;;;;;1.98;85.32;95401.52;1764134;80;21071;-82
2021/12/29 08:38:48;;;;;;;121.45;61.20;;;;;;;1.96;85.29;95397.82;1726618;81;21399;-82
2021/12/29 08:41:14;;;;;;;90.10;53.28;;;;;;;1.91;84.98;95410.74;1727417;81;21035;-82
2021/12/29 08:43:40;;;;;;;98.03;59.05;;;;;;;1.87;85.06;95415.84;1730398;81;21020;-82
2021/12/29 08:46:06;;;;;;;86.60;55.15;;;;;;;1.86;85.14;95421.93;1717618;82;21019;-84
2021/12/29 08:48:31;;;;;;;125.02;73.83;;;;;;;1.86;85.31;95418.09;1729314;81;21047;-84
2021/12/29 08:50:59;;;;;;;124.38;73.05;;;;;;;1.85;85.37;95426.25;1742614;81;21007;-84
2021/12/29 08:53:26;;;;;;;121.45;73.17;;;;;;;1.86;85.45;95422.73;1739556;81;21099;-84
2021/12/29 08:55:55;;;;;;;136.22;79.70;;;;;;;1.92;85.66;95425.16;1731614;82;21062;-84
2021/12/29 08:58:20;;;;;;;162.00;91.82;;;;;;;1.99;85.67;95427.45;1726092;82;21005;-84
2021/12/29 09:00:46;;;;;;;125.47;80.20;;;;;;;2.03;85.49;95426.19;1730057;81;21018;-84
2021/12/29 09:03:11;;;;;;;116.90;71.17;;;;;;;2.09;85.55;95436.62;1750743;81;21033;-84
2021/12/29 09:05:37;;;;;;;105.52;72.03;;;;;;;2.09;85.31;95439.18;1748733;81;21087;-84
2021/12/29 09:08:03;;;;;;;112.28;72.53;;;;;;;2.14;85.17;95436.66;1739431;82;21063;-84
2021/12/29 09:10:29;;;;;;;113.03;72.87;;;;;;;2.12;84.98;95436.81;1741396;81;21075;-84
2021/12/29 09:12:55;;;;;;;104.65;67.25;;;;;;;2.15;85.22;95444.20;1721320;81;21439;-84
2021/12/29 09:15:21;;;;;;;106.85;70.17;;;;;;;2.20;85.12;95442.45;1737470;81;21358;-83
2021/12/29 09:17:47;;;;;;;109.15;71.07;;;;;;;2.24;84.46;95445.02;1700822;83;21036;-84
2021/12/29 09:20:23;;;;;;;114.05;70.00;;;;;;;2.29;84.33;95445.39;1700531;83;21004;-84
2021/12/29 09:22:41;;;;;;;114.32;75.85;;;;;;;2.29;83.81;95444.91;1688236;83;21423;-84
2021/12/29 09:25:08;;;;;;;115.03;75.75;;;;;;;2.29;83.84;95442.34;1672392;84;21106;-83
2021/12/29 09:27:34;;;;;;;111.57;77.55;;;;;;;2.36;84.05;95442.04;1726256;81;21027;-84
2021/12/29 09:30:00;;;;;;;118.42;75.35;;;;;;;2.44;84.26;95444.30;1744890;81;21019;-84
2021/12/29 09:32:30;;;;;;;106.92;67.80;;;;;;;2.50;84.17;95442.42;1738175;81;21079;-84
2021/12/29 09:34:57;;;;;;;111.97;70.62;;;;;;;2.45;83.37;95442.89;1741263;81;21411;-84
2021/12/29 09:37:21;;;;;;;103.07;68.35;;;;;;;2.43;83.63;95438.85;1693131;83;21083;-84
2021/12/29 09:39:47;;;;;;;104.80;70.03;;;;;;;2.49;83.82;95441.62;1697227;83;21019;-84
2021/12/29 09:42:13;;;;;;;113.17;72.27;;;;;;;2.55;83.82;95445.31;1696807;83;21423;-84
2021/12/29 09:44:38;;;;;;;101.65;70.37;;;;;;;2.64;83.79;95445.68;1707349;83;21020;-85
2021/12/29 09:47:06;;;;;;;105.25;72.97;;;;;;;2.68;83.86;95446.97;1711631;83;20989;-84
2021/12/29 09:49:33;;;;;;;103.47;70.03;;;;;;;2.73;83.82;95447.30;1708045;83;21082;-84
2021/12/29 09:51:59;;;;;;;117.65;77.70;;;;;;;2.79;83.92;95447.97;1700753;83;21124;-84
2021/12/29 09:54:26;;;;;;;113.03;76.40;;;;;;;2.82;83.89;95443.00;1706172;83;21062;-85
2021/12/29 09:56:51;;;;;;;105.30;70.70;;;;;;;2.85;83.77;95441.40;1697621;83;21519;-84
2021/12/29 09:59:18;;;;;;;105.60;68.87;;;;;;;2.89;83.71;95441.41;1694422;83;21478;-84
2021/12/29 10:01:45;;;;;;;119.22;76.70;;;;;;;2.96;83.73;95438.06;1706044;83;21058;-84
2021/12/29 10:04:13;;;;;;;96.10;63.33;;;;;;;3.06;83.68;95435.82;1703639;83;21027;-84
2021/12/29 10:06:38;;;;;;;95.70;66.67;;;;;;;3.08;83.24;95436.46;1700916;83;21051;-84
2021/12/29 10:11:40;;;;;;;104.15;67.45;;;;;;;3.06;83.38;95439.67;1696539;83;21000;-84
2021/12/29 10:14:10;;;;;;;91.40;58.98;;;;;;;3.11;83.46;95436.97;1700819;83;21063;-84
2021/12/29 10:16:36;;;;;;;112.90;75.47;;;;;;;3.12;83.07;95444.99;1710457;83;21116;-84
2021/12/29 10:19:12;;;;;;;107.65;67.92;;;;;;;3.10;83.01;95443.55;1706247;83;21080;-84
2021/12/29 10:21:46;;;;;;;103.97;68.80;;;;;;;3.11;83.07;95443.39;1707356;83;21068;-84
2021/12/29 10:24:12;;;;;;;128.42;84.22;;;;;;;3.19;83.14;95445.15;1696085;83;21039;-84
2021/12/29 10:26:47;;;;;;;134.82;84.87;;;;;;;3.17;82.71;95449.64;1698510;83;21090;-84
2021/12/29 10:29:16;;;;;;;136.82;89.85;;;;;;;3.21;82.74;95449.16;1706185;83;21994;-85
2021/12/29 10:32:01;;;;;;;156.07;100.38;;;;;;;3.22;82.89;95457.18;1695999;83;21020;-85
2021/12/29 10:34:29;;;;;;;147.57;89.25;;;;;;;3.29;82.95;95454.80;1709044;83;21469;-85
2021/12/29 10:37:07;;;;;;;141.40;91.65;;;;;;;3.30;82.37;95460.25;1701599;83;21125;-84
2021/12/29 10:39:44;;;;;;;135.25;87.33;;;;;;;3.26;82.14;95459.77;1710332;83;21008;-84
2021/12/29 10:42:15;;;;;;;133.52;87.37;;;;;;;3.35;82.60;95462.33;1688981;83;21154;-84
2021/12/29 10:44:48;;;;;;;118.57;73.87;;;;;;;3.40;82.46;95462.17;1704077;82;21450;-85
2021/12/29 10:47:27;;;;;;;125.00;78.15;;;;;;;3.45;82.04;95468.13;1700559;83;21031;-84
2021/12/29 10:50:07;;;;;;;117.67;71.53;;;;;;;3.45;81.92;95471.98;1700547;83;21058;-85
2021/12/29 10:52:38;;;;;;;109.20;68.02;;;;;;;3.47;82.22;95471.34;1703339;82;21051;-84
2021/12/29 10:55:31;;;;;;;102.50;63.75;;;;;;;3.52;82.32;95477.59;1714267;82;21036;-84
2021/12/29 10:58:10;;;;;;;115.20;76.75;;;;;;;3.60;82.36;95475.04;1708873;83;21047;-84
2021/12/29 11:00:38;;;;;;;117.53;76.87;;;;;;;3.64;82.01;95473.42;1708137;83;21052;-84
2021/12/29 11:03:10;;;;;;;123.60;79.15;;;;;;;3.63;82.10;95478.25;1703623;83;21142;-84
2021/12/29 11:05:39;;;;;;;113.47;75.50;;;;;;;3.67;82.13;95469.25;1703953;82;21029;-84
2021/12/29 11:08:10;;;;;;;110.95;71.28;;;;;;;3.72;82.35;95466.50;1713446;83;21051;-84
2021/12/29 11:10:36;;;;;;;116.03;76.40;;;;;;;3.79;82.21;95455.12;1712649;83;21135;-84
2021/12/29 11:15:31;;;;;;;129.40;82.65;;;;;;;3.88;82.06;95455.41;1703277;83;21106;-84
2021/12/29 11:18:04;;;;;;;112.83;71.45;;;;;;;3.90;82.03;95454.31;1710837;83;21092;-85
2021/12/29 11:20:31;;;;;;;103.45;66.42;;;;;;;3.89;81.80;95458.30;1702714;83;21022;-84
2021/12/29 11:23:14;;;;;;;114.32;77.37;;;;;;;3.88;82.09;95460.55;1696398;83;21111;-84
2021/12/29 11:25:42;;;;;;;115.92;73.15;;;;;;;3.89;82.14;95453.16;1678049;83;21416;-85
2021/12/29 11:28:10;;;;;;;105.05;71.17;;;;;;;3.87;81.93;95457.66;1700714;83;21114;-84
2021/12/29 11:30:39;;;;;;;107.97;68.92;;;;;;;3.89;82.24;95464.72;1685461;83;21091;-85
2021/12/29 11:33:09;;;;;;;111.72;73.20;;;;;;;3.95;82.35;95462.80;1691805;83;21139;-85
2021/12/29 11:35:42;;;;;;;115.35;76.00;;;;;;;3.99;82.07;95466.64;1699134;83;21059;-84